createdAt,value
2018-11-22T07:03:49.915Z,98323.66
2018-11-22T07:06:29.611Z,98330.03
2018-11-22T07:09:11.375Z,98330.30
2018-11-22T07:11:50.832Z,98328.09
2018-11-22T07:14:30.536Z,98335.94
2018-11-22T07:17:10.138Z,98330.23
2018-11-22T07:19:49.689Z,98334.31
2018-11-22T07:22:28.803Z,98332.38
2018-11-22T07:25:08.127Z,98335.52
2018-11-22T07:27:47.048Z,98341.70
2018-11-22T07:30:27.538Z,98333.77
2018-11-22T07:33:07.499Z,98331.16
2018-11-22T07:35:46.773Z,98334.53
2018-11-22T07:38:26.052Z,98334.36
2018-11-22T07:41:04.968Z,98333.64
2018-11-22T07:43:44.625Z,98329.12
2018-11-22T07:46:24.520Z,98332.19
2018-11-22T07:49:03.901Z,98335.95
2018-11-22T07:54:19.915Z,98332.35
2018-11-22T07:56:59.275Z,98336.52
2018-11-22T07:59:38.360Z,98338.26
2018-11-22T08:02:17.784Z,98340.73
2018-11-22T08:04:56.701Z,98334.30
2018-11-22T08:07:35.795Z,98332.77
2018-11-22T08:10:17.051Z,98342.91
2018-11-22T08:12:57.592Z,98338.64
2018-11-22T08:15:38.899Z,98341.65
2018-11-22T08:18:18.516Z,98337.65
2018-11-22T08:20:57.484Z,98345.27
2018-11-22T08:23:36.961Z,98346.69
2018-11-22T08:26:16.522Z,98349.76
2018-11-22T08:28:55.915Z,98349.62
2018-11-22T08:31:35.033Z,98349.97
2018-11-22T08:34:14.319Z,98352.75
2018-11-22T08:36:54.555Z,98352.84
2018-11-22T08:39:33.886Z,98352.60
2018-11-22T08:42:14.267Z,98355.16
2018-11-22T08:44:53.904Z,98356.11
2018-11-22T08:47:33.393Z,98359.11
2018-11-22T08:50:15.479Z,98359.67
2018-11-22T08:52:56.453Z,98358.64
2018-11-22T08:55:35.841Z,98359.67
2018-11-22T08:58:15.200Z,98360.59
2018-11-22T09:00:55.175Z,98362.61
2018-11-22T09:03:34.983Z,98366.50
2018-11-22T09:06:14.599Z,98375.75
2018-11-22T09:08:54.332Z,98379.29
2018-11-22T09:11:33.608Z,98378.49
2018-11-22T09:14:12.877Z,98378.49
2018-11-22T09:16:51.931Z,98383.44
2018-11-22T09:19:31.051Z,98381.02
2018-11-22T09:22:11.115Z,98382.38
2018-11-22T09:24:50.094Z,98378.31
2018-11-22T09:27:29.273Z,98378.91
2018-11-22T09:30:10.133Z,98386.50
2018-11-22T09:32:50.298Z,98385.97
2018-11-22T09:35:30.539Z,98386.59
2018-11-22T09:38:09.896Z,98383.94
2018-11-22T09:40:49.086Z,98386.70
2018-11-22T09:43:28.126Z,98386.94
2018-11-22T09:46:07.231Z,98390.23
2018-11-22T09:48:46.274Z,98390.53
2018-11-22T09:51:25.304Z,98387.55
2018-11-22T09:54:04.789Z,98390.56
2018-11-22T09:56:44.158Z,98381.36
2018-11-22T09:59:23.837Z,98378.94
2018-11-22T10:02:03.455Z,98382.19
2018-11-22T10:04:43.778Z,98378.12
2018-11-22T10:07:22.686Z,98381.95
2018-11-22T10:10:01.866Z,98377.34
2018-11-22T10:12:40.878Z,98381.41
2018-11-22T10:15:21.602Z,98380.06
2018-11-22T10:18:01.114Z,98382.83
2018-11-22T10:20:39.999Z,98387.13
2018-11-22T10:23:19.546Z,98381.47
2018-11-22T10:25:58.445Z,98372.88
2018-11-22T10:28:37.680Z,98370.83
2018-11-22T10:31:17.107Z,98364.73
2018-11-22T10:34:01.582Z,98369.79
2018-11-22T10:36:41.064Z,98364.14
2018-11-22T12:43:01.437Z,98334.25
2018-11-22T12:45:40.793Z,98343.64
2018-11-22T12:48:19.846Z,98337.84
2018-11-22T12:50:59.010Z,98332.62
2018-11-22T12:53:38.199Z,98334.75
2018-11-22T12:56:17.079Z,98334.41
2018-11-22T12:58:56.074Z,98337.33
2018-11-22T13:01:35.866Z,98328.23
2018-11-22T13:04:14.768Z,98328.84
2018-11-22T13:06:53.864Z,98335.72
2018-11-22T13:09:32.753Z,98325.71
2018-11-22T13:12:12.669Z,98334.23
2018-11-22T13:14:52.055Z,98326.62
2018-11-22T13:17:32.027Z,98328.50
2018-11-22T13:20:13.645Z,98325.79
2018-11-22T13:22:53.104Z,98327.44
2018-11-22T13:25:32.448Z,98328.02
2018-11-22T13:28:11.372Z,98330.50
2018-11-22T13:30:50.284Z,98333.23
2018-11-22T13:33:29.442Z,98338.95
2018-11-22T13:36:08.452Z,98335.45
2018-11-22T13:38:47.536Z,98330.86
2018-11-22T13:41:26.996Z,98329.55
2018-11-22T13:44:06.205Z,98326.06
2018-11-22T13:46:46.319Z,98327.67
2018-11-22T13:49:25.934Z,98325.55
2018-11-22T13:52:05.389Z,98325.25
2018-11-22T13:54:45.719Z,98328.26
2018-11-22T13:57:26.344Z,98327.19
2018-11-22T14:00:06.286Z,98322.63
2018-11-22T14:02:46.055Z,98325.35
2018-11-22T14:05:25.261Z,98322.63
2018-11-22T14:08:04.374Z,98321.81
2018-11-22T14:10:44.440Z,98330.20
2018-11-22T14:13:25.168Z,98332.91
2018-11-22T14:16:04.173Z,98329.33
2018-11-22T14:18:44.033Z,98324.14
2018-11-22T14:21:23.845Z,98324.41
2018-11-22T14:24:03.454Z,98318.11
2018-11-22T14:26:42.558Z,98320.53
2018-11-22T14:29:21.553Z,98320.24
2018-11-22T14:32:01.811Z,98326.73
2018-11-22T14:34:41.918Z,98329.16
2018-11-22T14:37:22.351Z,98324.80
2018-11-22T14:40:03.462Z,98326.16
2018-11-22T14:42:43.427Z,98319.91
2018-11-22T14:45:23.143Z,98322.61
2018-11-22T14:48:04.165Z,98316.64
2018-11-22T14:51:05.250Z,98319.37
2018-11-22T14:53:45.070Z,98328.87
2018-11-22T14:56:24.997Z,98328.62
2018-11-22T14:59:05.844Z,98318.89
2018-11-22T15:01:45.786Z,98320.00
2018-11-22T15:04:26.160Z,98322.19
2018-11-22T15:07:05.739Z,98324.89
2018-11-22T15:09:46.287Z,98324.07
2018-11-22T15:12:25.895Z,98320.83
2018-11-22T15:15:05.995Z,98319.42
2018-11-22T15:17:50.433Z,98313.45
2018-11-22T15:20:32.616Z,98321.36
2018-11-22T15:23:12.306Z,98322.19
2018-11-22T15:25:52.879Z,98321.41
2018-11-22T15:28:32.354Z,98316.52
2018-11-22T15:31:11.830Z,98322.52
2018-11-22T15:33:53.921Z,98326.01
2018-11-22T15:36:34.532Z,98328.19
2018-11-22T15:39:15.415Z,98330.91
2018-11-22T15:41:54.414Z,98335.27
2018-11-22T15:44:34.579Z,98335.56
2018-11-22T15:47:14.575Z,98348.03
2018-11-22T15:49:54.351Z,98343.13
2018-11-22T15:52:33.931Z,98343.41
2018-11-22T15:55:20.456Z,98347.20
2018-11-22T15:57:55.133Z,98346.14
2018-11-22T16:00:36.200Z,98344.23
2018-11-22T16:03:16.371Z,98346.41
2018-11-22T16:05:56.291Z,98351.84
2018-11-22T16:08:36.079Z,98355.33
2018-11-22T16:11:15.969Z,98353.92
2018-11-22T16:13:55.733Z,98352.22
2018-11-22T16:16:36.374Z,98356.83
2018-11-22T16:19:16.802Z,98349.51
